Time;durP1;ratioP1;P1;durP2;ratioP2;P2;SDS_P1;SDS_P2;PMS_P1;PMS_P2;Temp;Humidity;BMP_temperature;BMP_pressure;BME280_temperature;BME280_humidity;BME280_pressure;Samples;Min_cycle;Max_cycle;Signal;HPM_P1;HPM_P2
2022/05/20 00:01:43;;;;;;;9.70;4.33;;;;;;;12.62;46.73;101229.98;125586;1102;102056;-77
2022/05/20 00:04:27;;;;;;;10.23;4.20;;;;;;;12.54;47.39;101233.23;125410;1102;102187;-77
2022/05/20 00:07:18;;;;;;;11.07;4.20;;;;;;;12.44;47.43;101225.80;125567;1102;102913;-76
2022/05/20 00:09:50;;;;;;;9.03;4.33;;;;;;;12.39;47.63;101227.36;125595;1102;102355;-77
2022/05/20 00:12:34;;;;;;;9.73;4.23;;;;;;;12.33;47.52;101216.58;125369;1102;102093;-77
2022/05/20 00:15:22;;;;;;;11.60;4.33;;;;;;;12.29;48.03;101217.28;125570;1102;104259;-76
2022/05/20 00:18:27;;;;;;;11.20;4.20;;;;;;;12.25;47.82;101223.25;125659;1102;104395;-76
2022/05/20 00:21:06;;;;;;;6.03;3.40;;;;;;;12.20;47.67;101225.69;125535;1102;102724;-77
2022/05/20 00:24:07;;;;;;;11.93;4.40;;;;;;;12.19;48.09;101227.44;125742;1099;102317;-77
2022/05/20 00:26:50;;;;;;;9.03;4.10;;;;;;;12.11;48.55;101231.50;125524;1099;103328;-77
2022/05/20 00:29:30;;;;;;;12.27;4.10;;;;;;;12.05;48.37;101231.24;126334;1099;104117;-77
2022/05/20 00:32:21;;;;;;;8.13;4.07;;;;;;;12.01;48.94;101227.59;125902;1099;102082;-77
2022/05/20 00:35:14;;;;;;;10.37;4.07;;;;;;;11.96;48.73;101228.23;126223;1100;104338;-78
2022/05/20 00:37:53;;;;;;;12.23;4.13;;;;;;;11.93;49.42;101222.84;126657;1099;102249;-78
2022/05/20 00:40:38;;;;;;;9.60;3.70;;;;;;;11.91;49.58;101229.75;126541;1099;102259;-78
2022/05/20 00:43:37;;;;;;;11.73;4.20;;;;;;;11.86;49.30;101226.92;125626;1099;104280;-79
2022/05/20 00:46:29;;;;;;;12.73;3.80;;;;;;;11.81;50.11;101229.36;125239;1102;104420;-79
2022/05/20 00:49:20;;;;;;;8.60;3.80;;;;;;;11.78;50.49;101217.79;125685;1102;102270;-78
2022/05/20 00:55:03;;;;;;;9.50;4.07;;;;;;;11.75;49.90;101223.84;125537;1105;104188;-78
2022/05/20 00:58:04;;;;;;;9.40;4.10;;;;;;;11.76;49.63;101230.88;125749;1105;104362;-78
2022/05/20 01:03:55;;;;;;;11.20;4.03;;;;;;;11.69;49.83;101229.72;125418;1105;104159;-78
2022/05/20 01:06:44;;;;;;;10.80;4.67;;;;;;;11.65;49.92;101230.41;125569;1102;104197;-78
2022/05/20 01:09:52;;;;;;;12.23;4.57;;;;;;;11.61;50.58;101227.58;125595;1102;101738;-79
2022/05/20 01:12:38;;;;;;;9.83;4.07;;;;;;;11.55;50.79;101230.87;125488;1102;102923;-78
2022/05/20 01:15:30;;;;;;;13.13;4.53;;;;;;;11.50;50.96;101230.66;125376;1102;109107;-79
2022/05/20 01:18:05;;;;;;;9.33;4.20;;;;;;;11.44;51.25;101225.14;125638;1102;102557;-78
2022/05/20 01:20:55;;;;;;;9.80;4.53;;;;;;;11.39;51.40;101226.68;125548;1102;102108;-78
2022/05/20 01:23:38;;;;;;;15.00;4.73;;;;;;;11.31;51.44;101226.34;125553;1102;103006;-78
2022/05/20 01:26:44;;;;;;;9.15;4.60;;;;;;;11.28;50.52;101230.53;125775;1102;102184;-78
2022/05/20 01:29:47;;;;;;;12.10;4.63;;;;;;;11.24;51.69;101236.51;125745;1102;104223;-78
2022/05/20 01:33:04;;;;;;;14.07;5.13;;;;;;;11.21;51.68;101232.00;125595;1103;103549;-78
2022/05/20 01:36:25;;;;;;;11.60;5.00;;;;;;;11.17;51.72;101234.42;125658;1102;110456;-79
2022/05/20 01:39:42;;;;;;;14.53;5.40;;;;;;;11.14;52.18;101232.55;125911;1102;102523;-78
2022/05/20 01:42:42;;;;;;;15.60;6.03;;;;;;;11.13;52.28;101217.64;126650;1099;104258;-78
2022/05/20 01:45:36;;;;;;;11.60;5.70;;;;;;;11.11;52.47;101221.89;126356;1099;102354;-78
2022/05/20 01:51:23;;;;;;;;;;;;;;;11.00;52.85;101224.07;125732;1102;104169;-78
2022/05/20 01:54:05;;;;;;;15.53;6.27;;;;;;;10.94;52.85;101218.54;125653;1102;102310;-78
2022/05/20 01:56:52;;;;;;;14.90;6.80;;;;;;;10.89;53.08;101222.66;125633;1102;104288;-78
2022/05/20 01:59:43;;;;;;;15.53;6.70;;;;;;;10.86;52.74;101219.89;125592;1102;102958;-79
2022/05/20 02:02:34;;;;;;;17.77;7.70;;;;;;;10.87;53.55;101213.82;125809;1102;104258;-78
2022/05/20 02:05:26;;;;;;;18.10;7.47;;;;;;;10.88;53.09;101220.88;125527;1102;104070;-78
2022/05/20 02:11:49;;;;;;;18.17;7.70;;;;;;;10.83;52.86;101219.75;125686;1102;103317;-78
2022/05/20 02:14:29;;;;;;;17.80;7.83;;;;;;;10.80;53.49;101217.91;125611;1102;102800;-78
2022/05/20 02:17:24;;;;;;;15.20;7.30;;;;;;;10.77;52.69;101221.27;125589;1102;101830;-78
2022/05/20 02:20:27;;;;;;;19.30;7.77;;;;;;;10.74;53.31;101221.13;125307;1102;104169;-78
2022/05/20 02:23:11;;;;;;;17.52;7.85;;;;;;;10.71;54.13;101215.73;125690;1099;102192;-78
2022/05/20 02:26:14;;;;;;;21.20;8.00;;;;;;;10.68;53.35;101218.22;126341;1099;104665;-78
2022/05/20 02:32:24;;;;;;;16.30;7.50;;;;;;;10.64;53.98;101213.64;125827;1102;102024;-78
2022/05/20 02:41:39;;;;;;;18.10;7.63;;;;;;;10.57;54.04;101219.45;125632;1101;104889;-78
2022/05/20 02:44:46;;;;;;;18.43;8.07;;;;;;;10.57;54.30;101214.20;125711;1102;102834;-78
2022/05/20 02:50:26;;;;;;;17.13;7.67;;;;;;;10.52;54.15;101213.98;125594;1102;101799;-78
2022/05/20 02:53:22;;;;;;;16.40;6.93;;;;;;;10.52;54.13;101218.34;125499;1102;102083;-78
2022/05/20 02:56:06;;;;;;;19.77;7.03;;;;;;;10.51;54.90;101211.28;125891;1102;103762;-77
2022/05/20 03:05:27;;;;;;;16.63;7.13;;;;;;;10.55;55.29;101216.75;125808;1102;102967;-76
2022/05/20 03:08:24;;;;;;;17.70;6.90;;;;;;;10.55;54.86;101210.58;125847;1102;101774;-77
2022/05/20 03:11:20;;;;;;;18.97;7.13;;;;;;;10.55;55.99;101223.70;125920;1102;103209;-79
2022/05/20 03:15:33;;;;;;;17.33;7.17;;;;;;;10.47;56.14;101218.12;126032;1102;102211;-79
2022/05/20 03:21:24;;;;;;;18.87;7.03;;;;;;;10.40;55.71;101206.41;125815;1102;102213;-78
2022/05/20 03:24:27;;;;;;;13.93;6.90;;;;;;;10.43;55.79;101208.30;125186;1105;104249;-78
2022/05/20 03:27:31;;;;;;;15.97;7.30;;;;;;;10.46;55.91;101213.69;125716;1102;104280;-78
2022/05/20 03:30:56;;;;;;;14.10;6.23;;;;;;;10.49;56.27;101211.22;125864;1102;101793;-79
2022/05/20 03:33:57;;;;;;;17.73;6.53;;;;;;;10.55;55.97;101221.08;125682;1105;102354;-77
2022/05/20 03:37:00;;;;;;;17.13;7.17;;;;;;;10.62;56.55;101220.55;125653;1105;104191;-78
2022/05/20 03:42:46;;;;;;;19.43;6.93;;;;;;;10.76;56.36;101221.20;125736;1102;104245;-78
2022/05/20 04:04:12;;;;;;;19.10;7.70;;;;;;;11.05;56.39;101232.16;125073;1111;102340;-76
2022/05/20 04:07:05;;;;;;;17.87;7.30;;;;;;;11.11;56.60;101224.52;124432;1109;103009;-77
2022/05/20 04:09:42;;;;;;;17.00;6.70;;;;;;;11.14;55.86;101229.91;124919;1106;102204;-77
2022/05/20 04:12:27;;;;;;;18.23;7.03;;;;;;;11.19;56.08;101231.05;125251;1109;104265;-76
2022/05/20 04:14:58;;;;;;;18.83;7.33;;;;;;;11.25;55.92;101228.70;124077;1108;104348;-75
2022/05/20 04:17:37;;;;;;;18.70;7.37;;;;;;;11.32;55.90;101224.59;123903;1109;104374;-75
2022/05/20 04:20:11;;;;;;;20.40;8.50;;;;;;;11.40;55.85;101225.83;123974;1109;104239;-76
2022/05/20 04:22:46;;;;;;;24.27;8.60;;;;;;;11.50;56.13;101228.03;124952;1109;102246;-77
2022/05/20 04:25:54;;;;;;;19.63;9.00;;;;;;;11.57;55.69;101228.30;125381;1109;119015;-78
2022/05/20 04:47:26;;;;;;;17.70;7.50;;;;;;;12.19;55.49;101219.55;124734;1112;109247;-75
2022/05/20 04:50:24;;;;;;;14.67;6.80;;;;;;;12.28;55.16;101221.66;124281;1112;104281;-76
2022/05/20 04:59:52;;;;;;;20.90;6.57;;;;;;;12.61;54.83;101212.41;124867;1115;104349;-77
2022/05/20 05:02:26;;;;;;;19.43;7.03;;;;;;;12.71;54.71;101212.79;124613;1115;104146;-76
2022/05/20 05:05:23;;;;;;;18.17;6.70;;;;;;;12.81;54.41;101211.43;124669;1112;102505;-76
2022/05/20 05:08:02;;;;;;;20.27;7.27;;;;;;;12.90;54.75;101209.14;124364;1115;108405;-78
2022/05/20 05:10:52;;;;;;;16.30;6.70;;;;;;;12.99;54.49;101200.67;124379;1118;102831;-77
2022/05/20 05:13:32;;;;;;;15.57;6.37;;;;;;;13.09;54.17;101205.45;124507;1118;104436;-77
2022/05/20 05:16:10;;;;;;;14.33;5.73;;;;;;;13.19;54.47;101200.52;124224;1115;102297;-78
2022/05/20 05:18:42;;;;;;;17.33;6.03;;;;;;;13.31;54.36;101196.57;124304;1115;102559;-79
2022/05/20 05:21:18;;;;;;;14.73;5.60;;;;;;;13.45;54.07;101204.12;124312;1112;104402;-77
2022/05/20 05:23:53;;;;;;;14.13;5.70;;;;;;;13.56;53.86;101202.74;124348;1112;103751;-76
2022/05/20 05:26:27;;;;;;;14.30;5.53;;;;;;;13.69;53.43;101204.05;124444;1109;103070;-77
2022/05/20 05:29:00;;;;;;;11.83;5.50;;;;;;;13.81;53.70;101199.20;123984;1109;102979;-77
2022/05/20 05:31:33;;;;;;;13.17;5.10;;;;;;;13.94;53.66;101203.13;124089;1109;104248;-77
2022/05/20 05:34:08;;;;;;;12.10;5.47;;;;;;;14.05;53.35;101205.24;124003;1109;104316;-77
2022/05/20 05:36:42;;;;;;;11.10;4.70;;;;;;;14.15;52.57;101194.16;124822;1109;104184;-77
2022/05/20 05:39:14;;;;;;;10.30;4.40;;;;;;;14.26;52.93;101191.82;124060;1109;104307;-78
2022/05/20 05:41:46;;;;;;;11.03;4.40;;;;;;;14.37;52.76;101195.72;124216;1109;104711;-77
2022/05/20 05:44:19;;;;;;;14.33;4.97;;;;;;;14.49;51.56;101200.47;124217;1109;102647;-76
2022/05/20 05:46:54;;;;;;;11.47;4.97;;;;;;;14.57;52.16;101196.34;124163;1105;104207;-78
2022/05/20 05:49:28;;;;;;;15.03;4.80;;;;;;;14.67;51.56;101200.18;124431;1106;102099;-79
2022/05/20 05:52:09;;;;;;;15.47;5.17;;;;;;;14.78;51.29;101197.86;124479;1106;104342;-79
2022/05/20 05:54:41;;;;;;;16.17;5.23;;;;;;;14.90;52.02;101193.83;124450;1105;104658;-79
2022/05/20 05:57:15;;;;;;;14.43;5.10;;;;;;;15.04;51.12;101203.91;124319;1103;104434;-77
2022/05/20 05:59:48;;;;;;;15.55;4.42;;;;;;;15.17;50.77;101205.14;124398;1105;104107;-79
2022/05/20 06:02:32;;;;;;;12.97;5.13;;;;;;;15.30;51.30;101196.69;124646;1105;104207;-78
2022/05/20 06:05:07;;;;;;;13.43;5.00;;;;;;;15.48;50.35;101190.13;125486;1105;104137;-78
2022/05/20 06:07:47;;;;;;;14.27;5.17;;;;;;;15.62;50.91;101197.55;125160;1105;103812;-78
2022/05/20 06:10:27;;;;;;;14.70;5.20;;;;;;;15.78;50.78;101192.69;124601;1106;102770;-78
2022/05/20 06:13:09;;;;;;;14.03;5.67;;;;;;;15.93;49.69;101192.20;124534;1105;104436;-77
2022/05/20 06:16:13;;;;;;;15.37;4.90;;;;;;;16.07;50.25;101195.19;124724;1105;102732;-81
2022/05/20 06:18:52;;;;;;;11.90;4.45;;;;;;;16.23;49.41;101197.32;124402;1109;103040;-78
2022/05/20 06:21:40;;;;;;;11.40;4.40;;;;;;;16.42;49.40;101200.41;125519;1105;103168;-81
2022/05/20 06:27:39;;;;;;;13.80;4.83;;;;;;;16.78;49.89;101195.04;125429;1105;104210;-81
2022/05/20 06:30:32;;;;;;;13.30;4.20;;;;;;;16.93;48.32;101189.18;125196;1105;104399;-78
2022/05/20 06:33:33;;;;;;;12.73;4.40;;;;;;;17.09;49.09;101182.42;125244;1105;104226;-80
2022/05/20 06:42:12;;;;;;;19.40;4.73;;;;;;;17.48;47.89;101177.86;125300;1106;103820;-80
2022/05/20 06:45:16;;;;;;;10.73;3.97;;;;;;;17.56;47.75;101173.57;125412;1105;104178;-79
2022/05/20 06:48:12;;;;;;;7.77;3.90;;;;;;;17.66;48.06;101177.30;125310;1105;102380;-78
2022/05/20 06:51:08;;;;;;;12.40;4.10;;;;;;;17.76;47.81;101181.88;125325;1105;103468;-79
2022/05/20 06:57:51;;;;;;;12.00;4.10;;;;;;;18.09;47.03;101170.05;125309;1105;103667;-82
2022/05/20 07:00:47;;;;;;;11.37;4.10;;;;;;;18.23;46.69;101162.30;125306;1106;103452;-80
2022/05/20 07:03:20;;;;;;;;;;;;;;;18.39;45.40;101174.06;125286;1105;103021;-78
2022/05/20 07:05:59;;;;;;;15.17;4.30;;;;;;;18.55;46.05;101165.42;125275;1105;104143;-79
2022/05/20 07:08:48;;;;;;;17.67;4.58;;;;;;;18.69;46.45;101165.60;125329;1106;102887;-79
2022/05/20 07:11:26;;;;;;;9.43;4.43;;;;;;;18.92;46.33;101165.92;125327;1105;103426;-81
2022/05/20 07:14:19;;;;;;;14.20;4.73;;;;;;;19.16;46.25;101165.30;125348;1105;101921;-78
2022/05/20 07:16:59;;;;;;;13.67;4.60;;;;;;;19.42;45.89;101167.36;124958;1105;103726;-82
2022/05/20 07:19:46;;;;;;;14.30;4.30;;;;;;;19.67;45.39;101164.93;124639;1105;102508;-82
2022/05/20 07:22:28;;;;;;;12.63;3.87;;;;;;;20.00;44.73;101167.00;125294;1105;103052;-78
2022/05/20 07:25:05;;;;;;;11.90;3.83;;;;;;;20.27;44.30;101158.31;124672;1106;104578;-79
2022/05/20 07:27:40;;;;;;;14.43;4.20;;;;;;;20.55;44.54;101153.11;125229;1105;103801;-79
2022/05/20 07:30:15;;;;;;;12.40;4.13;;;;;;;20.74;43.87;101147.90;124639;1105;104077;-80
2022/05/20 07:33:04;;;;;;;16.45;4.45;;;;;;;21.03;42.89;101147.12;124502;1105;104099;-80
2022/05/20 07:35:38;;;;;;;16.77;4.40;;;;;;;21.27;43.12;101140.94;124569;1105;102877;-77
2022/05/20 07:38:12;;;;;;;14.67;4.40;;;;;;;21.38;42.91;101139.20;125231;1103;104256;-77
2022/05/20 07:40:47;;;;;;;13.25;4.30;;;;;;;21.66;42.01;101137.47;124564;1105;104169;-80
2022/05/20 07:43:38;;;;;;;15.67;4.50;;;;;;;21.96;41.78;101143.68;125357;1106;118425;-80
2022/05/20 07:46:24;;;;;;;9.50;3.97;;;;;;;22.33;40.57;101132.96;125004;1105;104490;-79
2022/05/20 07:49:15;;;;;;;15.50;4.30;;;;;;;22.68;40.59;101134.61;125145;1105;104133;-80
2022/05/20 07:51:57;;;;;;;10.87;3.90;;;;;;;22.94;39.55;101141.63;125003;1109;104242;-79
2022/05/20 07:54:41;;;;;;;13.25;3.90;;;;;;;23.23;39.59;101138.80;124542;1105;104399;-81
2022/05/20 07:57:21;;;;;;;12.80;3.93;;;;;;;23.41;38.60;101128.88;124819;1105;103024;-80
2022/05/20 07:59:55;;;;;;;;;;;;;;;23.60;31.95;101133.17;125287;1105;104226;-79
2022/05/20 08:02:36;;;;;;;7.10;3.10;;;;;;;23.84;35.96;101132.13;125364;1105;103265;-79
2022/05/20 08:06:03;;;;;;;8.07;3.30;;;;;;;24.08;35.99;101137.27;125244;1104;104107;-78
2022/05/20 08:08:47;;;;;;;8.83;2.70;;;;;;;24.32;35.15;101136.98;125420;1105;102404;-80
2022/05/20 08:11:49;;;;;;;;;;;;;;;;;;;;;
2022/05/20 08:14:28;;;;;;;6.30;2.73;;;;;;;24.58;32.70;101139.39;125185;1105;107862;-79
2022/05/20 08:17:11;;;;;;;5.40;2.70;;;;;;;24.65;32.83;101137.55;125348;1102;104136;-81
2022/05/20 08:20:09;;;;;;;13.40;3.20;;;;;;;24.74;33.16;101129.38;125264;1102;104163;-81
2022/05/20 08:23:03;;;;;;;;;;;;;;;24.84;31.98;101130.14;125330;1102;102686;-81
2022/05/20 08:29:16;;;;;;;6.53;2.73;;;;;;;24.94;31.57;101133.58;125270;1103;103837;-80
2022/05/20 08:31:48;;;;;;;6.97;2.60;;;;;;;25.09;31.55;101121.75;125297;1102;104325;-79
2022/05/20 08:34:27;;;;;;;10.20;3.30;;;;;;;24.97;30.34;101125.48;125420;1102;104194;-79
2022/05/20 08:37:39;;;;;;;5.73;2.47;;;;;;;24.88;29.76;101123.80;125431;1102;105059;-82
2022/05/20 08:40:44;;;;;;;6.30;2.33;;;;;;;24.86;27.07;101119.38;125501;1102;103578;-79
2022/05/20 08:50:41;;;;;;;;;;;;;;;;;;;;;
2022/05/20 08:53:33;;;;;;;7.10;2.70;;;;;;;25.45;27.94;101098.81;125086;1105;104434;-81
2022/05/20 08:56:29;;;;;;;6.93;2.43;;;;;;;25.39;27.52;101087.30;125326;1105;104198;-80
2022/05/20 08:59:50;;;;;;;6.43;2.47;;;;;;;25.47;27.68;101091.61;125221;1105;102983;-80
2022/05/20 09:03:06;;;;;;;8.80;2.53;;;;;;;25.55;25.99;101096.85;124897;1108;103621;-79
2022/05/20 09:06:07;;;;;;;4.10;2.07;;;;;;;25.53;26.52;101089.75;125055;1109;109719;-80
2022/05/20 09:12:36;;;;;;;;;;;;;;;;;;;;;
2022/05/20 09:18:33;;;;;;;6.53;2.37;;;;;;;25.43;25.02;101068.41;124903;1106;104397;-78
2022/05/20 09:21:28;;;;;;;3.83;2.17;;;;;;;25.51;25.42;101070.06;125276;1106;104238;-78
2022/05/20 09:24:12;;;;;;;6.03;2.37;;;;;;;25.59;25.22;101063.66;125329;1106;102229;-77
2022/05/20 09:26:49;;;;;;;;;;;;;;;25.67;22.77;101065.33;124499;1105;117948;-79
2022/05/20 09:29:30;;;;;;;2.83;2.03;;;;;;;25.71;25.30;101064.34;125242;1105;103492;-77
2022/05/20 09:32:17;;;;;;;6.30;2.27;;;;;;;25.79;25.28;101055.23;125296;1105;104338;-77
2022/05/20 09:35:02;;;;;;;5.93;2.57;;;;;;;25.92;25.07;101055.00;124600;1102;104408;-81
2022/05/20 09:37:38;;;;;;;5.90;2.20;;;;;;;26.00;25.56;101053.95;125278;1102;104143;-78
2022/05/20 09:40:36;;;;;;;7.57;2.10;;;;;;;26.05;24.67;101053.86;125386;1102;103886;-79
2022/05/20 09:43:29;;;;;;;2.93;2.07;;;;;;;26.11;25.42;101048.36;125441;1102;104131;-78
2022/05/20 09:46:04;;;;;;;2.40;1.93;;;;;;;26.21;25.42;101037.42;125296;1102;103125;-77
2022/05/20 09:48:41;;;;;;;6.27;2.40;;;;;;;26.24;25.67;101037.36;125251;1102;104288;-78
2022/05/20 09:51:31;;;;;;;5.37;2.30;;;;;;;26.29;24.99;101033.66;125247;1102;102808;-78
2022/05/20 09:54:21;;;;;;;4.57;2.13;;;;;;;26.36;25.25;101034.41;125326;1102;104662;-77
2022/05/20 09:57:23;;;;;;;6.40;2.35;;;;;;;26.39;25.37;101028.09;125091;1105;103685;-78
2022/05/20 10:00:26;;;;;;;3.73;1.70;;;;;;;26.30;25.04;101023.78;125143;1106;103392;-81
2022/05/20 10:03:19;;;;;;;3.80;2.10;;;;;;;26.39;24.48;101018.20;125269;1105;102994;-79
2022/05/20 10:06:02;;;;;;;3.70;1.97;;;;;;;26.36;23.82;101010.20;125302;1105;104120;-82
2022/05/20 10:08:43;;;;;;;2.83;2.00;;;;;;;26.36;23.32;101004.81;125238;1105;103857;-80
2022/05/20 10:11:29;;;;;;;5.17;2.20;;;;;;;26.33;23.58;101004.88;125311;1105;104381;-79
2022/05/20 10:16:58;;;;;;;5.93;2.00;;;;;;;26.41;23.62;100994.83;124739;1105;103953;-82
2022/05/20 10:19:50;;;;;;;4.83;2.10;;;;;;;26.45;23.51;100991.16;125249;1106;104296;-77
2022/05/20 10:22:34;;;;;;;3.73;2.20;;;;;;;26.49;23.80;100983.89;124560;1105;104650;-79
2022/05/20 10:25:13;;;;;;;6.17;2.47;;;;;;;26.53;23.34;100989.17;124645;1105;102831;-78
2022/05/20 10:28:06;;;;;;;6.73;2.37;;;;;;;26.64;23.77;100990.75;125350;1106;103467;-76
2022/05/20 10:33:39;;;;;;;6.30;2.30;;;;;;;26.89;23.50;100980.30;124742;1103;102502;-79
2022/05/20 10:36:20;;;;;;;3.80;2.17;;;;;;;26.81;23.74;100952.70;124721;1103;104329;-82
2022/05/20 10:39:06;;;;;;;4.67;2.20;;;;;;;26.90;23.30;100963.23;125439;1102;102849;-81
2022/05/20 10:42:02;;;;;;;4.80;2.13;;;;;;;27.05;23.19;100965.55;124782;1102;104226;-83
2022/05/20 10:49:12;;;;;;;5.83;2.13;;;;;;;27.31;22.94;100957.70;125480;1102;102693;-82
2022/05/20 10:52:18;;;;;;;5.67;2.10;;;;;;;27.26;22.86;100956.01;125594;1102;102866;-82
2022/05/20 10:55:19;;;;;;;6.90;2.13;;;;;;;27.34;22.21;100955.84;125408;1105;102579;-80
2022/05/20 10:58:16;;;;;;;8.10;3.20;;;;;;;27.46;23.09;100949.25;125395;1105;102170;-80
2022/05/20 11:01:17;;;;;;;5.53;2.17;;;;;;;27.45;22.34;100942.08;125290;1105;104179;-78
2022/05/20 11:04:56;;;;;;;5.93;2.30;;;;;;;27.46;22.56;100933.08;125169;1105;104130;-79
2022/05/20 11:08:06;;;;;;;7.30;2.80;;;;;;;27.51;22.91;100933.83;125320;1102;104275;-79
2022/05/20 11:15:06;;;;;;;10.13;2.30;;;;;;;27.58;22.07;100935.44;125247;1105;102623;-79
2022/05/20 11:18:25;;;;;;;4.70;1.97;;;;;;;27.60;21.92;100919.22;125355;1105;102291;-79
2022/05/20 11:21:28;;;;;;;4.83;1.93;;;;;;;27.66;21.60;100924.44;125281;1105;104297;-80
2022/05/20 11:24:19;;;;;;;5.97;2.13;;;;;;;27.63;21.19;100913.73;124609;1105;102834;-76
2022/05/20 11:27:10;;;;;;;5.17;2.10;;;;;;;27.74;20.98;100900.83;124489;1106;104124;-77
2022/05/20 11:30:09;;;;;;;5.63;2.10;;;;;;;27.88;21.36;100908.51;124783;1102;104178;-77
2022/05/20 11:33:03;;;;;;;2.77;2.10;;;;;;;27.85;20.83;100902.34;124656;1102;102983;-77
2022/05/20 11:36:29;;;;;;;;;;;;;;;;;;;;;
2022/05/20 11:39:49;;;;;;;8.47;2.27;;;;;;;27.77;20.60;100899.86;125316;1102;103004;-79
2022/05/20 11:42:38;;;;;;;;;;;;;;;27.80;20.68;100892.56;125440;1102;102824;-78
2022/05/20 11:45:28;;;;;;;4.87;2.13;;;;;;;27.87;20.63;100895.95;125021;1102;102852;-77
2022/05/20 11:48:25;;;;;;;6.15;2.00;;;;;;;27.88;20.49;100892.33;124851;1102;102773;-77
2022/05/20 11:51:44;;;;;;;7.47;1.90;;;;;;;27.77;20.33;100884.56;124746;1102;104370;-78
2022/05/20 11:57:33;;;;;;;5.43;2.00;;;;;;;27.95;19.92;100872.34;124656;1102;104146;-80
2022/05/20 12:00:16;;;;;;;4.10;1.83;;;;;;;28.11;20.33;100869.17;125379;1102;104321;-80
2022/05/20 12:02:50;;;;;;;;;;;;;;;28.14;19.10;100872.69;125608;1102;104163;-77
2022/05/20 12:05:43;;;;;;;7.53;2.20;;;;;;;28.21;20.36;100873.36;125118;1102;102752;-78
2022/05/20 12:08:53;;;;;;;4.53;1.93;;;;;;;28.01;19.42;100865.89;125566;1102;102801;-82
2022/05/20 12:12:07;;;;;;;3.40;2.00;;;;;;;27.88;19.32;100849.19;125458;1102;103798;-78
2022/05/20 12:15:09;;;;;;;10.77;2.47;;;;;;;27.87;19.51;100852.80;125502;1102;102321;-81
2022/05/20 12:24:11;;;;;;;4.93;2.30;;;;;;;27.86;19.33;100845.66;125421;1102;103048;-79
2022/05/20 12:25:41;;;;;;;7.93;2.07;;;;;;;27.87;19.21;100850.10;125378;1102;103216;-78
2022/05/20 12:28:50;;;;;;;;;;;;;;;;;;;;;
2022/05/20 12:32:23;;;;;;;2.72;2.08;;;;;;;27.97;19.36;100832.75;125559;1102;102878;-78
2022/05/20 12:35:24;;;;;;;;;;;;;;;;;;;;;
2022/05/20 12:38:36;;;;;;;3.03;1.93;;;;;;;28.15;19.59;100817.78;125645;1102;102969;-81
2022/05/20 12:42:04;;;;;;;5.47;2.00;;;;;;;28.14;19.45;100818.73;125108;1102;104132;-79
2022/05/20 12:44:40;;;;;;;6.47;2.20;;;;;;;28.28;19.48;100810.19;125199;1106;103187;-78
2022/05/20 12:47:34;;;;;;;3.60;2.00;;;;;;;28.32;19.30;100806.44;125312;1105;102682;-79
2022/05/20 12:50:25;;;;;;;3.13;2.20;;;;;;;28.32;19.32;100806.44;125284;1102;103390;-79
2022/05/20 12:56:17;;;;;;;;;;;;;;;;;;;;;
2022/05/20 13:09:12;;;;;;;;;;;;;;;;;;;;;
2022/05/20 13:12:35;;;;;;;2.63;2.20;;;;;;;27.91;19.14;100778.98;125918;1102;102198;-81
2022/05/20 13:15:36;;;;;;;5.33;2.30;;;;;;;27.90;19.17;100782.59;125685;1105;103000;-79
2022/05/20 13:18:35;;;;;;;4.53;2.30;;;;;;;28.00;19.46;100775.11;125325;1102;102633;-79
2022/05/20 13:21:49;;;;;;;5.17;2.20;;;;;;;28.09;19.42;100777.52;125305;1102;102780;-79
2022/05/20 13:24:39;;;;;;;4.07;2.20;;;;;;;28.06;19.87;100765.95;124537;1105;104165;-78
2022/05/20 13:27:41;;;;;;;6.37;2.20;;;;;;;28.14;19.75;100770.17;125189;1105;104253;-81
2022/05/20 13:30:23;;;;;;;4.60;1.97;;;;;;;28.25;19.20;100767.12;125216;1105;102601;-77
2022/05/20 13:33:27;;;;;;;4.93;2.00;;;;;;;28.27;19.27;100759.84;125286;1105;102674;-79
2022/05/20 13:36:24;;;;;;;5.00;2.00;;;;;;;28.20;19.26;100758.28;125329;1102;105080;-79
2022/05/20 13:39:09;;;;;;;3.50;2.37;;;;;;;28.12;19.36;100760.36;125316;1102;103443;-79
2022/05/20 13:41:54;;;;;;;6.70;2.53;;;;;;;28.08;19.58;100751.50;125265;1102;102333;-79
2022/05/20 13:44:29;;;;;;;3.43;2.10;;;;;;;27.98;19.42;100742.80;125167;1102;104204;-81
2022/05/20 13:50:31;;;;;;;6.50;2.40;;;;;;;27.75;19.94;100746.23;125212;1102;104265;-79
2022/05/20 13:53:04;;;;;;;4.83;2.23;;;;;;;27.65;19.72;100733.09;125136;1104;104175;-80
2022/05/20 13:55:40;;;;;;;6.35;2.37;;;;;;;27.51;20.24;100720.05;125295;1102;102729;-80
2022/05/20 13:58:32;;;;;;;8.77;2.67;;;;;;;27.43;20.01;100722.98;125274;1102;104373;-81
2022/05/20 14:01:17;;;;;;;7.60;3.40;;;;;;;27.35;20.16;100728.61;125325;1102;102520;-78
2022/05/20 14:03:59;;;;;;;6.40;2.50;;;;;;;27.32;20.20;100731.39;125493;1102;103890;-80
2022/05/20 14:06:43;;;;;;;8.60;2.87;;;;;;;27.32;20.44;100725.13;125642;1102;104402;-80
2022/05/20 14:09:32;;;;;;;5.40;2.47;;;;;;;27.32;20.16;100725.13;125010;1102;103187;-77
2022/05/20 14:12:25;;;;;;;4.13;2.60;;;;;;;27.26;20.47;100715.37;125592;1102;104169;-78
2022/05/20 14:15:04;;;;;;;;;;;;;;;27.22;20.49;100711.00;125589;1102;103555;-79
2022/05/20 14:18:07;;;;;;;8.40;2.50;;;;;;;27.19;20.81;100703.02;125580;1102;102247;-79
2022/05/20 14:21:37;;;;;;;4.53;2.40;;;;;;;27.16;20.77;100711.19;125101;1105;102660;-78
2022/05/20 14:24:20;;;;;;;5.87;2.50;;;;;;;27.15;20.76;100702.23;125048;1105;102477;-78
2022/05/20 14:27:00;;;;;;;8.33;2.77;;;;;;;27.13;20.84;100698.72;125069;1105;102456;-78
2022/05/20 14:29:41;;;;;;;4.33;2.23;;;;;;;27.15;21.41;100686.08;125250;1109;102943;-81
2022/05/20 14:32:17;;;;;;;7.60;2.40;;;;;;;27.11;21.27;100686.21;125117;1109;102451;-79
2022/05/20 14:34:56;;;;;;;2.97;2.17;;;;;;;27.12;21.58;100686.16;125193;1106;102700;-77
2022/05/20 14:37:36;;;;;;;4.83;2.50;;;;;;;27.11;21.62;100676.31;125195;1106;102635;-78
2022/05/20 14:40:12;;;;;;;4.47;2.40;;;;;;;27.12;21.49;100672.70;124484;1105;104230;-78
2022/05/20 14:43:09;;;;;;;4.57;2.50;;;;;;;27.12;21.40;100674.52;124540;1105;102869;-76
2022/05/20 14:46:03;;;;;;;6.97;2.20;;;;;;;27.09;21.94;100670.97;125049;1105;104181;-78
2022/05/20 14:48:49;;;;;;;8.63;2.90;;;;;;;27.08;21.60;100669.23;125511;1105;102335;-77
2022/05/20 14:52:05;;;;;;;6.40;2.40;;;;;;;27.03;22.11;100664.90;125525;1109;102596;-77
2022/05/20 14:55:43;;;;;;;5.63;2.47;;;;;;;26.96;21.96;100663.30;125585;1109;101870;-77
2022/05/20 14:58:18;;;;;;;8.53;2.63;;;;;;;26.92;22.16;100661.66;124093;1109;104169;-76
2022/05/20 15:00:58;;;;;;;7.60;2.70;;;;;;;26.89;21.98;100657.23;124222;1105;119505;-77
2022/05/20 15:03:33;;;;;;;3.37;2.37;;;;;;;26.89;21.39;100657.23;124245;1105;102417;-76
2022/05/20 15:06:15;;;;;;;5.40;2.43;;;;;;;26.96;22.12;100652.53;124066;1105;104191;-75
2022/05/20 15:08:48;;;;;;;6.93;1.97;;;;;;;27.02;21.76;100657.73;123966;1109;103129;-75
2022/05/20 15:11:21;;;;;;;4.87;2.17;;;;;;;27.05;21.89;100652.26;123960;1105;104358;-74
2022/05/20 15:13:55;;;;;;;5.80;1.97;;;;;;;27.08;21.90;100647.69;123983;1105;103059;-74
2022/05/20 15:16:29;;;;;;;3.53;2.30;;;;;;;27.14;21.96;100654.67;123884;1109;104358;-74
2022/05/20 15:19:01;;;;;;;3.47;2.40;;;;;;;27.18;21.92;100640.19;124028;1105;104326;-74
2022/05/20 15:21:35;;;;;;;3.93;2.40;;;;;;;27.22;21.83;100638.28;124129;1105;102412;-75
2022/05/20 15:24:10;;;;;;;2.77;2.10;;;;;;;27.26;22.08;100634.56;124263;1105;104191;-75
2022/05/20 15:26:42;;;;;;;5.20;2.30;;;;;;;27.30;22.01;100629.95;124334;1105;103576;-74
2022/05/20 15:29:19;;;;;;;5.53;2.40;;;;;;;27.34;21.85;100627.15;124234;1105;103054;-74
2022/05/20 15:37:26;;;;;;;5.43;2.07;;;;;;;27.30;21.83;100619.18;124409;1102;102919;-74
2022/05/20 15:40:02;;;;;;;6.43;2.30;;;;;;;27.21;21.86;100615.86;124331;1102;104267;-74